Time;durP1;ratioP1;P1;durP2;ratioP2;P2;SDS_P1;SDS_P2;PMS_P1;PMS_P2;Temp;Humidity;BMP_temperature;BMP_pressure;BME280_temperature;BME280_humidity;BME280_pressure;Samples;Min_cycle;Max_cycle;Signal;HPM_P1;HPM_P2
2022/03/02 00:00:40;;;;;;;12.30;9.17;;;1.70;99.90;;;;;;5030750;28;20212;-51
2022/03/02 00:03:10;;;;;;;11.63;8.97;;;1.70;99.90;;;;;;5029888;28;20212;-52
2022/03/02 00:05:38;;;;;;;13.27;9.20;;;1.70;99.90;;;;;;5030358;28;20203;-51
2022/03/02 00:08:07;;;;;;;10.90;8.30;;;1.70;99.90;;;;;;5030231;28;20263;-51
2022/03/02 00:10:35;;;;;;;12.63;8.10;;;1.80;99.90;;;;;;5030556;28;20212;-51
2022/03/02 00:13:04;;;;;;;13.57;8.33;;;1.80;99.90;;;;;;5030041;28;20799;-52
2022/03/02 00:15:32;;;;;;;12.20;8.80;;;1.90;99.90;;;;;;5028843;28;20205;-52
2022/03/02 00:18:01;;;;;;;11.20;8.30;;;1.90;99.90;;;;;;5030298;28;20287;-52
2022/03/02 00:20:30;;;;;;;12.90;9.13;;;1.90;99.90;;;;;;5030460;28;20232;-52
2022/03/02 00:22:58;;;;;;;13.60;8.47;;;1.90;99.90;;;;;;5029821;28;20271;-52
2022/03/02 00:25:26;;;;;;;11.73;8.73;;;1.80;99.90;;;;;;5030037;28;20217;-52
2022/03/02 00:27:55;;;;;;;12.33;8.60;;;1.80;99.90;;;;;;5029999;28;20256;-52
2022/03/02 00:30:26;;;;;;;11.17;8.03;;;1.80;99.90;;;;;;5029924;28;20275;-52
2022/03/02 00:32:54;;;;;;;11.27;8.60;;;1.80;99.90;;;;;;5029572;28;20212;-52
2022/03/02 00:35:23;;;;;;;12.43;8.77;;;1.90;99.90;;;;;;5030260;28;20206;-52
2022/03/02 00:37:53;;;;;;;11.13;8.67;;;1.90;99.90;;;;;;5029521;28;20736;-52
2022/03/02 00:40:21;;;;;;;12.60;9.43;;;1.90;99.90;;;;;;5028733;28;20632;-52
2022/03/02 00:42:49;;;;;;;10.93;7.70;;;2.00;99.90;;;;;;5020013;28;20204;-52
2022/03/02 00:45:17;;;;;;;11.13;7.93;;;2.00;99.90;;;;;;5010006;28;20210;-52
2022/03/02 00:47:46;;;;;;;10.40;7.63;;;2.00;99.90;;;;;;5009861;28;20208;-52
2022/03/02 00:50:15;;;;;;;9.83;7.87;;;2.10;99.90;;;;;;5010052;28;20282;-52
2022/03/02 00:52:44;;;;;;;11.83;7.97;;;2.10;99.90;;;;;;5009421;28;20207;-51
2022/03/02 00:55:14;;;;;;;12.73;8.57;;;2.10;99.90;;;;;;5009777;28;20264;-52
2022/03/02 00:57:43;;;;;;;13.33;7.77;;;2.10;99.90;;;;;;5010164;28;20261;-52
2022/03/02 01:00:12;;;;;;;10.03;7.23;;;2.00;99.90;;;;;;5009379;28;20607;-52
2022/03/02 01:02:41;;;;;;;10.83;8.00;;;2.00;99.90;;;;;;5009217;28;20211;-52
2022/03/02 01:05:10;;;;;;;12.57;8.10;;;2.10;99.90;;;;;;5009592;28;20568;-51
2022/03/02 01:07:38;;;;;;;10.33;7.97;;;2.00;99.90;;;;;;5009834;28;20210;-52
2022/03/02 01:10:08;;;;;;;10.67;7.87;;;2.10;99.90;;;;;;5016680;28;20256;-52
2022/03/02 01:12:39;;;;;;;9.30;7.23;;;2.10;99.90;;;;;;5028883;28;20209;-52
2022/03/02 01:15:08;;;;;;;12.20;7.83;;;2.10;99.90;;;;;;5028654;28;20193;-52
2022/03/02 01:17:36;;;;;;;13.87;8.23;;;2.10;99.90;;;;;;5028711;28;20211;-52
2022/03/02 01:20:07;;;;;;;11.93;8.40;;;2.10;99.90;;;;;;5029940;28;20275;-52
2022/03/02 01:22:35;;;;;;;12.17;8.27;;;2.10;99.90;;;;;;5029088;28;20263;-52
2022/03/02 01:25:04;;;;;;;11.50;8.30;;;2.10;99.90;;;;;;5029733;28;20213;-52
2022/03/02 01:27:32;;;;;;;10.93;8.83;;;2.10;99.90;;;;;;5029181;28;20210;-52
2022/03/02 01:30:02;;;;;;;11.60;8.60;;;2.10;99.90;;;;;;5029023;28;20256;-52
2022/03/02 01:32:30;;;;;;;12.27;9.93;;;2.10;99.90;;;;;;5029162;28;20207;-52
2022/03/02 01:34:58;;;;;;;13.47;9.07;;;2.10;99.90;;;;;;5028902;28;20247;-52
2022/03/02 01:37:27;;;;;;;12.03;8.90;;;2.10;99.90;;;;;;5029334;28;20210;-52
2022/03/02 01:39:55;;;;;;;30.27;21.50;;;2.20;99.90;;;;;;5028644;28;20267;-52
2022/03/02 01:42:23;;;;;;;15.63;12.23;;;2.20;99.90;;;;;;5028642;28;20279;-52
2022/03/02 01:44:51;;;;;;;28.90;20.23;;;2.30;99.90;;;;;;5028994;28;20214;-52
2022/03/02 01:47:21;;;;;;;22.00;15.63;;;2.30;99.90;;;;;;5029392;28;20772;-52
2022/03/02 01:49:49;;;;;;;14.03;9.83;;;2.30;99.90;;;;;;5029163;28;20307;-52
2022/03/02 01:52:17;;;;;;;14.57;10.87;;;2.30;99.90;;;;;;5030910;28;20618;-52
2022/03/02 01:54:46;;;;;;;12.77;9.47;;;2.30;99.90;;;;;;5032992;28;20296;-52
2022/03/02 01:57:15;;;;;;;12.13;9.10;;;2.30;99.90;;;;;;5032252;28;20202;-51
2022/03/02 01:59:44;;;;;;;13.73;9.97;;;2.30;99.90;;;;;;5032533;28;20280;-52
2022/03/02 02:02:12;;;;;;;13.10;9.97;;;2.30;99.90;;;;;;5032137;28;20344;-52
2022/03/02 02:04:41;;;;;;;12.03;9.30;;;2.20;99.90;;;;;;5032478;28;20206;-52
2022/03/02 02:07:10;;;;;;;13.87;10.10;;;2.30;99.90;;;;;;5032462;28;20209;-52
2022/03/02 02:09:39;;;;;;;12.57;9.30;;;2.20;99.90;;;;;;5032145;28;20224;-51
2022/03/02 02:12:07;;;;;;;12.83;9.57;;;2.20;99.90;;;;;;5032046;28;20252;-51
2022/03/02 02:14:35;;;;;;;14.03;9.70;;;2.20;99.90;;;;;;5030772;28;20210;-52
2022/03/02 02:17:04;;;;;;;11.40;9.60;;;2.20;99.90;;;;;;5032627;28;20214;-52
2022/03/02 02:19:32;;;;;;;12.23;9.23;;;2.20;99.90;;;;;;5031858;28;20714;-52
2022/03/02 02:22:01;;;;;;;11.27;9.20;;;2.20;99.90;;;;;;5031877;28;20245;-51
2022/03/02 02:24:30;;;;;;;10.73;8.80;;;2.30;99.90;;;;;;5032251;28;20598;-52
2022/03/02 02:26:58;;;;;;;9.80;7.67;;;2.30;99.90;;;;;;5032191;28;20267;-52
2022/03/02 02:29:29;;;;;;;11.43;8.43;;;2.20;99.90;;;;;;5031986;28;20226;-52
2022/03/02 02:31:57;;;;;;;12.60;8.17;;;2.20;99.90;;;;;;5031843;28;20220;-52
2022/03/02 02:34:25;;;;;;;9.67;7.93;;;2.20;99.90;;;;;;5032051;28;20588;-51
2022/03/02 02:36:54;;;;;;;10.23;7.77;;;2.20;99.90;;;;;;5032117;28;20258;-51
2022/03/02 02:39:25;;;;;;;9.57;7.73;;;2.20;99.90;;;;;;5031680;28;20259;-52
2022/03/02 02:41:53;;;;;;;10.83;7.57;;;2.20;99.90;;;;;;5030357;28;20566;-51
2022/03/02 02:44:21;;;;;;;10.43;7.60;;;2.20;99.90;;;;;;5011907;28;20210;-51
2022/03/02 02:46:49;;;;;;;10.70;8.03;;;2.20;99.90;;;;;;5024431;28;20210;-51
2022/03/02 02:49:18;;;;;;;9.60;7.20;;;2.20;99.90;;;;;;5031981;28;20225;-51
2022/03/02 02:51:46;;;;;;;11.47;7.70;;;2.20;99.90;;;;;;5030985;28;20207;-52
2022/03/02 02:54:14;;;;;;;11.03;7.80;;;2.20;99.90;;;;;;5031265;28;20226;-52
2022/03/02 02:56:43;;;;;;;11.73;7.83;;;2.10;99.90;;;;;;5031365;28;20261;-51
2022/03/02 02:59:11;;;;;;;10.60;8.20;;;2.10;99.90;;;;;;5030642;28;20226;-51
2022/03/02 03:01:39;;;;;;;10.47;7.73;;;2.10;99.90;;;;;;5031884;28;20218;-52
2022/03/02 03:04:09;;;;;;;9.93;7.40;;;2.10;99.90;;;;;;5030343;28;20206;-51
2022/03/02 03:06:37;;;;;;;9.03;7.40;;;2.10;99.90;;;;;;5031526;28;20209;-51
2022/03/02 03:09:05;;;;;;;10.97;7.67;;;2.10;99.90;;;;;;5031432;28;20277;-51
2022/03/02 03:11:34;;;;;;;10.30;7.80;;;2.10;99.90;;;;;;5031299;28;20233;-52
2022/03/02 03:14:09;;;;;;;11.80;7.63;;;2.10;99.90;;;;;;5029693;28;20231;-52
2022/03/02 03:16:38;;;;;;;11.77;8.23;;;2.10;99.90;;;;;;5031428;28;20217;-53
2022/03/02 03:19:07;;;;;;;9.00;7.33;;;2.10;99.90;;;;;;5031022;28;20693;-52
2022/03/02 03:21:35;;;;;;;9.53;7.33;;;2.10;99.90;;;;;;5031076;28;20339;-52
2022/03/02 03:24:04;;;;;;;8.97;7.67;;;2.10;99.90;;;;;;5030923;28;20210;-52
2022/03/02 03:26:32;;;;;;;9.83;7.47;;;2.10;99.90;;;;;;5031070;28;20259;-52
2022/03/02 03:29:00;;;;;;;8.70;7.30;;;2.10;99.90;;;;;;5030965;28;20229;-52
2022/03/02 03:31:30;;;;;;;9.97;7.70;;;2.10;99.90;;;;;;5030784;28;20680;-52
2022/03/02 03:33:58;;;;;;;11.53;7.60;;;2.20;99.90;;;;;;5030892;28;20237;-52
2022/03/02 03:36:26;;;;;;;10.20;8.03;;;2.20;99.90;;;;;;5031054;28;20256;-52
2022/03/02 03:38:55;;;;;;;9.03;7.60;;;2.20;99.90;;;;;;5030680;28;20266;-52
2022/03/02 03:41:23;;;;;;;9.43;7.70;;;2.20;99.90;;;;;;5031117;28;20245;-52
2022/03/02 03:43:51;;;;;;;11.40;7.77;;;2.20;99.90;;;;;;5029966;28;20206;-52
2022/03/02 03:46:19;;;;;;;10.60;8.10;;;2.20;99.90;;;;;;5030712;28;20265;-52
2022/03/02 03:48:50;;;;;;;10.80;8.50;;;2.30;99.90;;;;;;5030089;28;20232;-51
2022/03/02 03:51:18;;;;;;;11.60;8.47;;;2.20;99.90;;;;;;5031001;28;20268;-52
2022/03/02 03:53:46;;;;;;;11.53;8.67;;;2.20;99.90;;;;;;5030327;28;20272;-52
2022/03/02 03:56:14;;;;;;;9.37;7.20;;;2.20;99.90;;;;;;5030598;28;20252;-52
2022/03/02 03:58:42;;;;;;;9.83;7.27;;;2.20;99.90;;;;;;5030564;28;20309;-52
2022/03/02 04:01:10;;;;;;;9.53;7.13;;;2.30;99.90;;;;;;5029885;28;20280;-52
2022/03/02 04:03:39;;;;;;;8.90;6.87;;;2.30;99.90;;;;;;5030347;28;20212;-52
2022/03/02 04:06:08;;;;;;;9.23;7.00;;;2.30;99.90;;;;;;5030691;28;20206;-51
2022/03/02 04:08:36;;;;;;;8.47;6.87;;;2.30;99.90;;;;;;5030473;28;20248;-51
2022/03/02 04:11:04;;;;;;;9.67;7.90;;;2.30;99.90;;;;;;5030546;28;20200;-50
2022/03/02 04:13:32;;;;;;;11.97;8.23;;;2.30;99.90;;;;;;5029038;28;20261;-52
2022/03/02 04:16:01;;;;;;;12.47;7.73;;;2.30;99.90;;;;;;5030437;28;20207;-51
2022/03/02 04:18:29;;;;;;;10.70;7.97;;;2.30;99.90;;;;;;5030422;28;20291;-52
2022/03/02 04:20:57;;;;;;;14.43;8.20;;;2.30;99.90;;;;;;5030259;28;20228;-51
2022/03/02 04:23:27;;;;;;;9.73;7.43;;;2.30;99.90;;;;;;5029980;28;20242;-51
2022/03/02 04:25:58;;;;;;;9.20;6.83;;;2.40;99.90;;;;;;5030224;28;20288;-51
2022/03/02 04:28:29;;;;;;;9.17;7.13;;;2.40;99.90;;;;;;5030410;28;20233;-50
2022/03/02 04:30:57;;;;;;;8.77;7.33;;;2.40;99.90;;;;;;5030445;28;20206;-51
2022/03/02 04:33:25;;;;;;;9.47;7.23;;;2.40;99.90;;;;;;5029753;28;20264;-51
2022/03/02 04:35:53;;;;;;;10.03;7.03;;;2.40;99.90;;;;;;5029858;28;20237;-51
2022/03/02 04:38:21;;;;;;;10.50;7.03;;;2.40;99.90;;;;;;5029745;28;20216;-51
2022/03/02 04:40:51;;;;;;;8.77;6.90;;;2.40;99.90;;;;;;5029768;28;20634;-51
2022/03/02 04:43:19;;;;;;;9.47;6.97;;;2.40;99.90;;;;;;5029873;28;20210;-50
2022/03/02 04:45:47;;;;;;;9.23;7.10;;;2.40;99.90;;;;;;5029611;28;20241;-50
2022/03/02 04:48:15;;;;;;;9.97;7.10;;;2.40;99.90;;;;;;5030127;28;20210;-51
2022/03/02 04:50:48;;;;;;;10.27;6.60;;;2.40;99.90;;;;;;5029647;28;20285;-52
2022/03/02 04:53:16;;;;;;;8.90;6.67;;;2.40;99.90;;;;;;5029601;28;20214;-51
2022/03/02 04:55:45;;;;;;;11.47;8.57;;;2.40;99.90;;;;;;5030127;28;20206;-51
2022/03/02 04:58:15;;;;;;;14.87;10.77;;;2.40;99.90;;;;;;5029608;28;20670;-51
2022/03/02 05:00:43;;;;;;;12.80;9.80;;;2.50;99.90;;;;;;5029892;28;20279;-51
2022/03/02 05:03:11;;;;;;;12.43;9.90;;;2.50;99.90;;;;;;5029130;28;20218;-51
2022/03/02 05:05:40;;;;;;;10.57;8.63;;;2.50;99.90;;;;;;5029804;28;20210;-53
2022/03/02 05:08:09;;;;;;;10.33;8.23;;;2.50;99.90;;;;;;5029735;28;20213;-51
2022/03/02 05:10:37;;;;;;;9.83;8.43;;;2.50;99.90;;;;;;5029601;28;20205;-51
2022/03/02 05:13:06;;;;;;;10.23;8.07;;;2.40;99.90;;;;;;5029206;28;20210;-50
2022/03/02 05:15:35;;;;;;;9.60;7.50;;;2.50;99.90;;;;;;5028342;28;20259;-51
2022/03/02 05:18:04;;;;;;;10.37;8.00;;;2.50;99.90;;;;;;5029832;28;20210;-50
2022/03/02 05:20:32;;;;;;;9.57;7.37;;;2.50;99.90;;;;;;5029650;28;20226;-51
2022/03/02 05:23:01;;;;;;;11.03;6.90;;;2.50;99.90;;;;;;5029151;28;20690;-51
2022/03/02 05:25:29;;;;;;;10.77;6.80;;;2.50;99.90;;;;;;5029401;28;20737;-51
2022/03/02 05:27:57;;;;;;;10.37;7.53;;;2.50;99.90;;;;;;5032941;28;20256;-51
2022/03/02 05:30:25;;;;;;;9.73;8.20;;;2.50;99.90;;;;;;5033301;28;20225;-52
2022/03/02 05:32:54;;;;;;;9.50;8.47;;;2.50;99.90;;;;;;5032947;28;20263;-52
2022/03/02 05:35:23;;;;;;;12.40;9.23;;;2.50;99.90;;;;;;5033683;28;20631;-50
2022/03/02 05:37:51;;;;;;;10.17;7.90;;;2.50;99.90;;;;;;5033457;28;20792;-52
2022/03/02 05:40:20;;;;;;;10.03;8.33;;;2.50;99.90;;;;;;5033095;28;20288;-51
2022/03/02 05:42:53;;;;;;;9.73;8.27;;;2.50;99.90;;;;;;5023759;28;20203;-51
2022/03/02 05:45:22;;;;;;;14.20;7.93;;;2.50;99.90;;;;;;5013423;28;20762;-51
2022/03/02 05:47:50;;;;;;;23.77;15.03;;;2.50;99.90;;;;;;5013410;28;20211;-51
2022/03/02 05:50:20;;;;;;;10.00;7.90;;;2.60;99.90;;;;;;5013273;28;20227;-51
2022/03/02 05:52:48;;;;;;;8.37;7.20;;;2.60;99.90;;;;;;5012708;28;20294;-52
2022/03/02 05:55:16;;;;;;;9.87;7.87;;;2.50;99.90;;;;;;5013415;28;20233;-51
2022/03/02 05:57:44;;;;;;;10.30;8.10;;;2.50;99.90;;;;;;5013277;28;20209;-50
2022/03/02 06:00:13;;;;;;;10.87;8.30;;;2.50;99.90;;;;;;5012868;28;20290;-51
2022/03/02 06:02:42;;;;;;;11.00;8.33;;;2.50;99.90;;;;;;5025639;28;20240;-51
2022/03/02 06:05:10;;;;;;;9.10;7.90;;;2.50;99.90;;;;;;5032804;28;20671;-51
2022/03/02 06:07:40;;;;;;;12.37;8.83;;;2.50;99.90;;;;;;5032564;28;20638;-50
2022/03/02 06:10:09;;;;;;;11.13;8.43;;;2.50;99.90;;;;;;5032672;28;20226;-51
2022/03/02 06:12:37;;;;;;;12.13;8.47;;;2.60;99.90;;;;;;5032533;28;20256;-50
2022/03/02 06:15:07;;;;;;;10.83;8.20;;;2.60;99.90;;;;;;5031631;28;20205;-51
2022/03/02 06:17:36;;;;;;;12.20;8.30;;;2.60;99.90;;;;;;5032231;28;20213;-51
2022/03/02 06:20:05;;;;;;;45.20;27.03;;;2.60;99.90;;;;;;5032708;28;20648;-51
2022/03/02 06:22:36;;;;;;;20.53;13.13;;;2.60;99.90;;;;;;5031998;28;20226;-51
2022/03/02 06:25:07;;;;;;;13.23;9.20;;;2.60;99.90;;;;;;5032778;28;20206;-51
2022/03/02 06:27:36;;;;;;;9.17;7.20;;;2.60;99.90;;;;;;5032418;28;20568;-51
2022/03/02 06:30:06;;;;;;;11.70;8.07;;;2.60;99.90;;;;;;5031896;28;20233;-51
2022/03/02 06:32:35;;;;;;;8.67;7.10;;;2.60;99.90;;;;;;5031810;28;20202;-51
2022/03/02 06:35:03;;;;;;;10.77;7.30;;;2.60;99.90;;;;;;5032246;28;20226;-55
2022/03/02 06:37:33;;;;;;;14.70;8.57;;;2.60;99.90;;;;;;5030940;28;20715;-51
2022/03/02 06:40:02;;;;;;;11.20;8.40;;;2.60;99.90;;;;;;5031399;28;20249;-51
2022/03/02 06:42:40;;;;;;;10.30;7.83;;;2.50;99.90;;;;;;5031226;28;20226;-51
2022/03/02 06:45:13;;;;;;;9.67;7.97;;;2.50;99.90;;;;;;5032043;28;20189;-51
2022/03/02 06:47:47;;;;;;;10.63;7.90;;;2.50;99.90;;;;;;5031857;28;20719;-51
2022/03/02 06:50:18;;;;;;;11.33;8.03;;;2.50;99.90;;;;;;5031941;28;20285;-51
2022/03/02 06:52:46;;;;;;;9.90;8.17;;;2.60;99.90;;;;;;5025197;28;21002;-52
2022/03/02 06:55:16;;;;;;;11.20;8.90;;;2.60;99.90;;;;;;5015921;28;20214;-52
2022/03/02 06:57:50;;;;;;;12.17;8.97;;;2.70;99.90;;;;;;5031882;28;20283;-51
2022/03/02 07:00:18;;;;;;;13.10;8.73;;;2.70;99.90;;;;;;5029622;28;20222;-52
2022/03/02 07:02:49;;;;;;;12.20;8.80;;;2.80;99.90;;;;;;5022497;28;20223;-52
2022/03/02 07:05:18;;;;;;;17.53;11.57;;;2.80;99.90;;;;;;5026675;28;20644;-50
2022/03/02 07:07:48;;;;;;;10.75;9.63;;;2.80;99.90;;;;;;5030432;28;20488;-52
2022/03/02 07:10:16;;;;;;;10.90;9.03;;;3.10;99.90;;;;;;5031644;28;20230;-52
2022/03/02 07:12:46;;;;;;;11.50;9.10;;;3.10;99.90;;;;;;5030784;28;20604;-50
2022/03/02 07:15:14;;;;;;;10.77;8.13;;;3.00;99.90;;;;;;5030506;28;20692;-51
2022/03/02 07:17:42;;;;;;;11.13;8.53;;;3.00;99.90;;;;;;5031040;28;20626;-50
2022/03/02 07:20:12;;;;;;;12.70;9.00;;;3.00;99.90;;;;;;5031416;28;20233;-51
2022/03/02 07:22:44;;;;;;;9.73;7.90;;;3.00;99.90;;;;;;5031163;28;20579;-51
2022/03/02 07:25:17;;;;;;;12.33;8.63;;;3.10;99.90;;;;;;5030914;28;20733;-52
2022/03/02 07:27:47;;;;;;;15.87;11.50;;;3.20;99.90;;;;;;5031728;28;20253;-51
2022/03/02 07:30:15;;;;;;;13.87;11.47;;;3.20;99.90;;;;;;5031324;28;20223;-51
2022/03/02 07:32:46;;;;;;;16.13;11.63;;;3.20;99.90;;;;;;5030799;28;20204;-52
2022/03/02 07:35:16;;;;;;;12.93;10.53;;;3.20;99.90;;;;;;5031093;28;20219;-52
2022/03/02 07:37:45;;;;;;;18.93;11.33;;;3.20;99.90;;;;;;5031094;28;20675;-51
2022/03/02 07:40:14;;;;;;;18.67;13.53;;;3.20;99.90;;;;;;5030528;28;20234;-52
2022/03/02 07:42:44;;;;;;;12.63;9.83;;;3.30;99.90;;;;;;5030631;28;20233;-51
2022/03/02 07:45:14;;;;;;;15.23;12.80;;;3.40;99.90;;;;;;5030723;28;20206;-52
2022/03/02 07:47:42;;;;;;;18.53;12.10;;;3.40;99.90;;;;;;5030821;28;20206;-52
2022/03/02 07:50:13;;;;;;;13.57;9.67;;;3.50;99.90;;;;;;5030621;28;20233;-52
2022/03/02 07:52:49;;;;;;;11.20;9.50;;;3.50;99.90;;;;;;5030341;28;20241;-52
2022/03/02 07:55:17;;;;;;;13.67;9.47;;;3.60;99.90;;;;;;5031010;28;20205;-51
2022/03/02 07:57:48;;;;;;;10.70;9.10;;;3.60;99.90;;;;;;5030106;28;20820;-52
2022/03/02 08:00:18;;;;;;;12.93;8.87;;;3.70;99.90;;;;;;5030874;28;20273;-52
2022/03/02 08:02:48;;;;;;;11.67;9.47;;;3.70;99.90;;;;;;5029868;28;20712;-51
2022/03/02 08:05:18;;;;;;;11.47;9.73;;;3.70;99.90;;;;;;5030603;28;20211;-52
2022/03/02 08:07:48;;;;;;;11.30;8.83;;;3.80;99.90;;;;;;5030494;28;20210;-52
2022/03/02 08:10:17;;;;;;;13.53;10.40;;;3.70;99.90;;;;;;5030424;28;20762;-51
2022/03/02 08:12:46;;;;;;;13.17;9.77;;;3.80;99.90;;;;;;5029730;28;20754;-51
2022/03/02 08:15:14;;;;;;;12.00;9.13;;;3.80;99.90;;;;;;5030712;28;20204;-52
2022/03/02 08:17:44;;;;;;;11.70;9.40;;;3.80;99.90;;;;;;5030053;28;20206;-51
2022/03/02 08:20:14;;;;;;;12.83;9.80;;;3.90;99.90;;;;;;5030352;28;20873;-51
2022/03/02 08:22:48;;;;;;;13.63;9.83;;;3.90;99.90;;;;;;5029765;28;20254;-52
2022/03/02 08:25:18;;;;;;;11.97;9.57;;;4.00;99.90;;;;;;5030061;28;20207;-52
2022/03/02 08:27:47;;;;;;;12.57;9.60;;;4.00;99.90;;;;;;5030284;28;20236;-51
2022/03/02 08:30:16;;;;;;;16.00;11.43;;;4.00;99.90;;;;;;5030001;28;20234;-52
2022/03/02 08:32:47;;;;;;;35.60;24.23;;;4.10;99.90;;;;;;5029539;28;20198;-51
2022/03/02 08:35:16;;;;;;;25.93;19.50;;;4.10;99.90;;;;;;5029640;28;20211;-52
2022/03/02 08:37:44;;;;;;;24.50;18.17;;;4.20;99.90;;;;;;5030080;28;20208;-51
2022/03/02 08:40:13;;;;;;;19.80;14.37;;;4.30;99.90;;;;;;5029255;28;20290;-51
2022/03/02 08:42:42;;;;;;;25.70;18.80;;;4.50;99.90;;;;;;5021855;28;20274;-51
2022/03/02 08:45:11;;;;;;;18.37;14.83;;;4.50;99.90;;;;;;5009825;28;20211;-51
2022/03/02 08:47:39;;;;;;;19.93;13.10;;;4.70;99.90;;;;;;5010360;28;20214;-51
2022/03/02 08:50:10;;;;;;;13.53;11.13;;;4.80;99.90;;;;;;5010448;28;20230;-51
2022/03/02 08:52:39;;;;;;;16.00;11.37;;;4.90;99.90;;;;;;5009816;28;20205;-51
2022/03/02 08:55:10;;;;;;;14.77;11.50;;;4.80;99.90;;;;;;5010285;28;20208;-50
2022/03/02 08:57:42;;;;;;;17.03;12.03;;;4.80;99.90;;;;;;5009892;28;20283;-51
2022/03/02 09:00:14;;;;;;;15.67;11.27;;;4.90;99.90;;;;;;5010125;28;20308;-51
2022/03/02 09:02:43;;;;;;;12.13;10.03;;;5.00;99.90;;;;;;5009047;28;20226;-51
2022/03/02 09:05:13;;;;;;;12.20;9.47;;;5.20;99.90;;;;;;5009892;28;20742;-51
2022/03/02 09:07:42;;;;;;;11.87;9.73;;;5.30;99.90;;;;;;5009759;28;20214;-51
2022/03/02 09:10:11;;;;;;;12.50;9.57;;;5.30;99.90;;;;;;5010040;28;20231;-52
2022/03/02 09:12:40;;;;;;;12.57;9.63;;;5.50;99.90;;;;;;5009237;28;20207;-51
2022/03/02 09:15:09;;;;;;;13.67;9.93;;;5.40;99.90;;;;;;5014505;28;20274;-51
2022/03/02 09:17:37;;;;;;;12.03;10.23;;;5.40;99.90;;;;;;5029314;28;20909;-52
2022/03/02 09:20:07;;;;;;;10.60;9.47;;;5.30;99.90;;;;;;5029449;28;20234;-52
2022/03/02 09:22:39;;;;;;;11.73;9.43;;;5.40;99.90;;;;;;5029256;28;20230;-52
2022/03/02 09:25:08;;;;;;;10.40;7.80;;;5.40;99.90;;;;;;5028917;28;20209;-51
2022/03/02 09:27:37;;;;;;;10.07;8.40;;;5.50;99.90;;;;;;5029592;28;20213;-52
2022/03/02 09:30:08;;;;;;;11.77;8.47;;;5.70;99.90;;;;;;5029120;28;20308;-52
2022/03/02 09:32:40;;;;;;;11.90;8.90;;;5.80;99.90;;;;;;5028621;28;20241;-52
2022/03/02 09:35:13;;;;;;;12.37;8.90;;;5.90;99.90;;;;;;5029338;28;20621;-51
2022/03/02 09:37:49;;;;;;;12.57;9.67;;;5.90;99.90;;;;;;5029849;28;20256;-52
2022/03/02 09:40:26;;;;;;;13.57;10.50;;;6.00;99.90;;;;;;5020421;28;20663;-52
2022/03/02 09:42:59;;;;;;;15.10;11.10;;;6.10;99.90;;;;;;5023865;28;20214;-52
2022/03/02 09:45:29;;;;;;;13.20;10.37;;;6.10;99.90;;;;;;5028883;28;20257;-52
2022/03/02 09:48:00;;;;;;;13.83;10.80;;;6.10;99.90;;;;;;5028810;28;20212;-52
2022/03/02 09:50:31;;;;;;;15.17;9.80;;;6.10;99.90;;;;;;5028042;28;20288;-52
2022/03/02 09:53:06;;;;;;;10.80;9.23;;;6.20;99.90;;;;;;5028626;28;20233;-53
2022/03/02 09:55:36;;;;;;;16.27;9.73;;;6.20;99.90;;;;;;5028982;28;20209;-52
2022/03/02 09:58:06;;;;;;;10.17;8.80;;;6.20;99.90;;;;;;5024865;22;20243;-52
2022/03/02 10:00:35;;;;;;;11.97;9.57;;;6.30;99.90;;;;;;5009505;28;20247;-52
2022/03/02 10:03:08;;;;;;;10.20;9.00;;;6.20;99.90;;;;;;5008317;28;20230;-52
2022/03/02 10:05:41;;;;;;;12.17;9.10;;;6.10;99.90;;;;;;4999205;28;20269;-53
2022/03/02 10:08:10;;;;;;;14.43;9.20;;;6.20;99.90;;;;;;4989498;28;20271;-52
2022/03/02 10:10:41;;;;;;;11.67;9.30;;;6.30;99.90;;;;;;4989190;28;20636;-52
2022/03/02 10:13:11;;;;;;;15.00;10.70;;;6.30;99.90;;;;;;4990910;28;20193;-52
2022/03/02 10:15:40;;;;;;;16.10;11.57;;;6.40;99.90;;;;;;5002145;28;20844;-53
2022/03/02 10:18:12;;;;;;;12.50;8.63;;;6.50;99.90;;;;;;5012308;28;20231;-52
2022/03/02 10:20:44;;;;;;;11.33;8.50;;;6.60;99.90;;;;;;5012355;28;20214;-52
2022/03/02 10:23:36;;;;;;;11.43;8.43;;;6.70;99.90;;;;;;5011737;28;20739;-52
2022/03/02 10:26:13;;;;;;;10.50;6.97;;;6.80;99.90;;;;;;5012376;28;20211;-52
2022/03/02 10:28:49;;;;;;;8.57;7.00;;;6.80;99.90;;;;;;5012553;28;20196;-53
2022/03/02 10:31:45;;;;;;;10.03;7.43;;;6.90;99.90;;;;;;5011885;28;20238;-52
2022/03/02 10:34:32;;;;;;;10.07;7.60;;;6.90;99.90;;;;;;5006928;28;20207;-51
2022/03/02 10:37:10;;;;;;;9.50;7.20;;;6.90;99.90;;;;;;5012076;28;20229;-52
2022/03/02 10:40:09;;;;;;;10.13;6.67;;;7.00;99.90;;;;;;4998662;28;20295;-52
2022/03/02 10:42:41;;;;;;;8.20;7.00;;;7.00;99.90;;;;;;4999878;28;20327;-52
2022/03/02 10:45:12;;;;;;;9.03;6.63;;;7.10;99.90;;;;;;5012589;28;20247;-52
2022/03/02 10:47:49;;;;;;;9.03;6.90;;;7.20;99.90;;;;;;5012000;28;20231;-52
2022/03/02 10:50:17;;;;;;;10.07;6.50;;;7.30;99.90;;;;;;5011621;28;20209;-52
2022/03/02 10:52:48;;;;;;;9.67;6.30;;;7.30;99.90;;;;;;5011564;28;20267;-52
2022/03/02 10:55:18;;;;;;;8.23;5.90;;;7.40;99.90;;;;;;5011644;28;20596;-52
2022/03/02 10:57:49;;;;;;;8.53;5.90;;;7.50;99.90;;;;;;5011964;28;20622;-52
2022/03/02 11:00:19;;;;;;;7.87;6.00;;;7.50;95.70;;;;;;5011507;28;20192;-52
2022/03/02 11:02:50;;;;;;;6.63;5.33;;;7.50;97.40;;;;;;5007332;28;20241;-52
2022/03/02 11:05:19;;;;;;;10.07;6.50;;;7.60;96.10;;;;;;4999035;28;20207;-52
2022/03/02 11:07:48;;;;;;;6.40;5.10;;;7.60;94.30;;;;;;5011642;28;20303;-52
2022/03/02 11:10:21;;;;;;;7.53;6.23;;;7.60;94.70;;;;;;5011573;28;20214;-53
2022/03/02 11:12:50;;;;;;;7.23;5.63;;;7.60;94.30;;;;;;5010994;28;20260;-52
2022/03/02 11:15:20;;;;;;;6.73;6.03;;;7.60;95.50;;;;;;5011144;28;20210;-52
2022/03/02 11:17:55;;;;;;;6.87;6.17;;;7.60;92.90;;;;;;5014125;28;20312;-53
2022/03/02 11:20:25;;;;;;;6.93;6.23;;;7.70;92.90;;;;;;5013337;28;20256;-52
2022/03/02 11:22:59;;;;;;;8.80;6.30;;;7.70;92.60;;;;;;5010575;28;20261;-52
2022/03/02 11:25:48;;;;;;;7.10;5.90;;;7.70;91.50;;;;;;5010586;28;20683;-52
2022/03/02 11:28:18;;;;;;;7.67;6.47;;;7.70;92.00;;;;;;5011307;28;20214;-52
2022/03/02 11:30:52;;;;;;;8.03;6.53;;;7.70;92.10;;;;;;5011249;28;20608;-52
2022/03/02 11:33:25;;;;;;;6.97;5.70;;;7.80;94.40;;;;;;5010478;28;20235;-52
2022/03/02 11:35:59;;;;;;;8.50;6.10;;;7.90;92.00;;;;;;5010807;28;20573;-51
2022/03/02 11:38:30;;;;;;;8.13;6.80;;;7.90;91.60;;;;;;5011135;28;20191;-52
2022/03/02 11:41:01;;;;;;;7.50;6.00;;;7.90;92.50;;;;;;5011184;28;20207;-52
2022/03/02 11:43:32;;;;;;;11.57;6.77;;;7.90;92.20;;;;;;5010590;28;20288;-52
2022/03/02 11:46:03;;;;;;;6.90;6.20;;;7.90;93.00;;;;;;5010798;28;20207;-52
2022/03/02 11:48:34;;;;;;;8.17;5.97;;;7.90;92.90;;;;;;5010572;28;20210;-52
2022/03/02 11:51:14;;;;;;;7.63;6.37;;;7.90;90.00;;;;;;5009745;28;20214;-51
2022/03/02 11:53:45;;;;;;;9.27;7.10;;;7.90;92.30;;;;;;5010248;28;20241;-52
2022/03/02 11:56:16;;;;;;;6.70;5.53;;;7.90;90.50;;;;;;5005422;28;20258;-53
2022/03/02 11:59:00;;;;;;;11.33;6.13;;;8.00;90.00;;;;;;5010662;28;20469;-52
2022/03/02 12:01:46;;;;;;;7.90;6.23;;;8.00;90.50;;;;;;5010077;28;20230;-52
2022/03/02 12:04:32;;;;;;;7.67;6.30;;;8.00;89.70;;;;;;5010522;28;20936;-52
2022/03/02 12:07:05;;;;;;;7.13;5.60;;;8.00;90.80;;;;;;5009924;28;20239;-52
2022/03/02 12:09:36;;;;;;;8.93;7.87;;;8.00;89.30;;;;;;5010343;28;20241;-52
2022/03/02 12:12:11;;;;;;;6.90;6.20;;;8.10;91.10;;;;;;5009999;28;20206;-52
2022/03/02 12:14:43;;;;;;;8.27;6.57;;;8.10;91.60;;;;;;5010428;28;20356;-52
2022/03/02 12:17:20;;;;;;;9.70;6.97;;;8.20;91.20;;;;;;5009839;28;20903;-52
2022/03/02 12:19:51;;;;;;;7.90;6.40;;;8.20;92.00;;;;;;5010023;28;20798;-52
2022/03/02 12:22:19;;;;;;;7.10;6.00;;;8.20;92.80;;;;;;5009801;28;20210;-52
2022/03/02 12:24:49;;;;;;;6.87;6.03;;;8.20;93.10;;;;;;5009728;28;20304;-52
2022/03/02 12:27:20;;;;;;;6.33;5.50;;;8.20;91.20;;;;;;5009956;28;20711;-53
2022/03/02 12:29:55;;;;;;;7.50;5.90;;;8.20;92.00;;;;;;5009676;28;20261;-52
2022/03/02 12:32:26;;;;;;;6.40;5.77;;;8.30;92.60;;;;;;5008444;28;20289;-52
2022/03/02 12:34:55;;;;;;;7.80;6.07;;;8.30;92.50;;;;;;5009636;28;20241;-52
2022/03/02 12:37:23;;;;;;;6.03;5.43;;;8.30;92.60;;;;;;5009244;28;20242;-51
2022/03/02 12:39:52;;;;;;;8.00;6.33;;;8.30;92.50;;;;;;5009912;28;20738;-52
2022/03/02 12:42:22;;;;;;;8.07;5.90;;;8.30;92.40;;;;;;5009154;28;20233;-52
2022/03/02 12:44:54;;;;;;;6.83;5.70;;;8.30;91.10;;;;;;5010266;28;20300;-52
2022/03/02 12:47:24;;;;;;;8.20;5.93;;;8.30;92.10;;;;;;5009878;28;20238;-53
2022/03/02 12:49:52;;;;;;;7.33;5.20;;;8.30;92.80;;;;;;5000428;28;20199;-53
2022/03/02 12:52:22;;;;;;;6.87;6.07;;;8.40;94.00;;;;;;5001130;28;20210;-52
2022/03/02 12:54:52;;;;;;;8.23;7.00;;;8.40;93.00;;;;;;5009522;28;20579;-52
2022/03/02 12:57:23;;;;;;;8.03;6.17;;;8.40;91.00;;;;;;5009174;28;20230;-52
2022/03/02 12:59:52;;;;;;;8.13;6.23;;;8.40;92.50;;;;;;5009771;28;20191;-52
2022/03/02 13:02:22;;;;;;;7.60;6.03;;;8.50;92.80;;;;;;5009370;28;20211;-52